Main page
METAR-TAF:

METAR-TAF

Airports :

Mehrabad International Airport

Tehran, Iran

latitude: 35-41N, longitude: 051-21E, elevation: 1204 m

Current weather observation

The report was made 38 minutes ago, at 16:30 UTC
Wind 4 kt from the South/Southeast
Temperature 18°C
Humidity 34%
Pressure 1021 hPa
Visibility 10 km or more
Few clouds at a height of 3500 ft

METAR: OIII 181630Z 15004KT 9999 FEW035 18/02 Q1021 A3016

Time: 20:38 (17:08 UTC)

Forecast

The report was made 5 hours and 38 minutes ago, at 11:30 UTC
Forecast valid from 18 at 12 UTC to 19 at 18 UTC
Wind 10 kt from the Southwest
Visibility: 8000 m
Scattered clouds at a height of 3500 ft

TAF: OIII 181130Z 1812/1918 23005MPS 8000 SCT035

Weather observations and forecasts of more than 4000 airports (METAR and TAF reports).

The available stations are represented by yellow and red dots on the map.

Hover mouse over dot to see the name of the station.

Then click to see weather observations and forecasts.

To change the map : click on the green buttons with a black cross to zoom in, on the green button with a dash to zoom out, or on the green arrows for adjacent maps.


METAR-TAF: